TAP238 LPPR-KEWR
Flight info
| Callsign | TAP238 |
|---|---|
| Flight time | N/A |
| Altitude | 33000 |
| Route | ASMOV DCT GUNTI/M083F340 DCT 40N020W 41N030W/M083F360 42N040W 43N050W DCT BOBTU/M083F380 DCT JAROM DCT LOMPI/N0484F380 DCT YHZ DCT ALLEX DCT HANAA FLOSI4 |
| Aircraft | A339/H-SADE1E2E3GHIJ3J5M1P2RWXY/LB2D1 |
Departure
| Time | N/A |
|---|---|
| Airport | Francisco de Sá Carneiro Airport (LPPR) |
Arrival
| Time | 2026-05-04 23:14 |
|---|---|
| Airport | Newark Liberty International Airport (KEWR) |
| Time | Latitude | Longitude | Altitude | Speed | Heading |
|---|---|---|---|---|---|
| 2026-05-04 22:38 | 43.45267 | -72.38104 | 38783 ft | 448 kts | 263° |
| 2026-05-04 22:39 | 43.44665 | -72.46596 | 38786 ft | 446 kts | 264° |
| 2026-05-04 22:39 | 43.41664 | -72.63275 | 38781 ft | 451 kts | 256° |
| 2026-05-04 22:40 | 43.38022 | -72.79787 | 38794 ft | 452 kts | 256° |
| 2026-05-04 22:40 | 43.34375 | -72.96328 | 38786 ft | 453 kts | 256° |
| 2026-05-04 22:41 | 43.30723 | -73.12764 | 38479 ft | 450 kts | 256° |
| 2026-05-04 22:41 | 43.28889 | -73.20940 | 37024 ft | 446 kts | 257° |
| 2026-05-04 22:41 | 43.27064 | -73.29032 | 35268 ft | 442 kts | 258° |
| 2026-05-04 22:41 | 43.25251 | -73.37053 | 33410 ft | 438 kts | 259° |
| 2026-05-04 22:42 | 43.23557 | -73.44592 | 31113 ft | 440 kts | 258° |
| 2026-05-04 22:42 | 43.22656 | -73.48594 | 30356 ft | 434 kts | 258° |
| 2026-05-04 22:42 | 43.21698 | -73.52512 | 29240 ft | 438 kts | 252° |
| 2026-05-04 22:42 | 43.20223 | -73.56227 | 27975 ft | 449 kts | 241° |
| 2026-05-04 22:43 | 43.18192 | -73.59538 | 26777 ft | 461 kts | 229° |
| 2026-05-04 22:43 | 43.15667 | -73.62254 | 25995 ft | 464 kts | 218° |
| 2026-05-04 22:43 | 43.12782 | -73.64247 | 25252 ft | 467 kts | 206° |
| 2026-05-04 22:43 | 43.09694 | -73.65593 | 24506 ft | 464 kts | 202° |
| 2026-05-04 22:44 | 43.06665 | -73.66853 | 24012 ft | 456 kts | 202° |
| 2026-05-04 22:44 | 43.03637 | -73.68124 | 23821 ft | 457 kts | 202° |
| 2026-05-04 22:44 | 43.00595 | -73.69412 | 23784 ft | 459 kts | 202° |
| 2026-05-04 22:44 | 42.97539 | -73.70705 | 23797 ft | 459 kts | 202° |
| 2026-05-04 22:45 | 42.94508 | -73.71983 | 23652 ft | 455 kts | 202° |
| 2026-05-04 22:45 | 42.88494 | -73.74516 | 22433 ft | 448 kts | 202° |
| 2026-05-04 22:45 | 42.85540 | -73.75759 | 21927 ft | 440 kts | 202° |
| 2026-05-04 22:46 | 42.82620 | -73.76988 | 21654 ft | 440 kts | 202° |
| 2026-05-04 22:46 | 42.79688 | -73.78224 | 21391 ft | 441 kts | 202° |
| 2026-05-04 22:46 | 42.76803 | -73.79437 | 21136 ft | 438 kts | 202° |
| 2026-05-04 22:46 | 42.73897 | -73.80658 | 20929 ft | 436 kts | 202° |
| 2026-05-04 22:47 | 42.71015 | -73.81924 | 20908 ft | 436 kts | 203° |
| 2026-05-04 22:47 | 42.68140 | -73.83230 | 20903 ft | 436 kts | 204° |
| 2026-05-04 22:47 | 42.65268 | -73.84539 | 20889 ft | 436 kts | 203° |
| 2026-05-04 22:47 | 42.62386 | -73.85846 | 20897 ft | 436 kts | 203° |
| 2026-05-04 22:48 | 42.59505 | -73.87143 | 20897 ft | 436 kts | 203° |
| 2026-05-04 22:48 | 42.56625 | -73.88434 | 20899 ft | 436 kts | 203° |
| 2026-05-04 22:48 | 42.53743 | -73.89724 | 20901 ft | 436 kts | 203° |
| 2026-05-04 22:48 | 42.50870 | -73.91005 | 20905 ft | 436 kts | 203° |
| 2026-05-04 22:49 | 42.47981 | -73.92294 | 20888 ft | 435 kts | 203° |
| 2026-05-04 22:49 | 42.45107 | -73.93576 | 20890 ft | 436 kts | 203° |
| 2026-05-04 22:49 | 42.42229 | -73.94858 | 20903 ft | 436 kts | 203° |
| 2026-05-04 22:49 | 42.39384 | -73.96124 | 20901 ft | 435 kts | 203° |
| 2026-05-04 22:50 | 42.36470 | -73.97419 | 20906 ft | 436 kts | 203° |
| 2026-05-04 22:50 | 42.33627 | -73.98681 | 20908 ft | 436 kts | 203° |
| 2026-05-04 22:50 | 42.30752 | -73.99957 | 20904 ft | 436 kts | 203° |
| 2026-05-04 22:50 | 42.27871 | -74.01235 | 20885 ft | 436 kts | 203° |
| 2026-05-04 22:51 | 42.24945 | -74.02531 | 20888 ft | 436 kts | 203° |
| 2026-05-04 22:51 | 42.22104 | -74.03788 | 20890 ft | 436 kts | 203° |
| 2026-05-04 22:51 | 42.19226 | -74.05060 | 20884 ft | 436 kts | 203° |
| 2026-05-04 22:51 | 42.16346 | -74.06333 | 20883 ft | 436 kts | 203° |
| 2026-05-04 22:52 | 42.13459 | -74.07609 | 20898 ft | 436 kts | 203° |
| 2026-05-04 22:52 | 42.10580 | -74.08880 | 20881 ft | 437 kts | 203° |
| 2026-05-04 22:52 | 42.07702 | -74.10146 | 20873 ft | 437 kts | 203° |
| 2026-05-04 22:52 | 42.04797 | -74.11419 | 20911 ft | 437 kts | 202° |
| 2026-05-04 22:53 | 42.02885 | -74.12257 | 20912 ft | 437 kts | 202° |
| 2026-05-04 22:53 | 41.99993 | -74.13527 | 20910 ft | 437 kts | 202° |
| 2026-05-04 22:53 | 41.97100 | -74.14796 | 20911 ft | 437 kts | 202° |
| 2026-05-04 22:53 | 41.94217 | -74.16058 | 20912 ft | 437 kts | 202° |
| 2026-05-04 22:54 | 41.91331 | -74.17321 | 20645 ft | 433 kts | 202° |
| 2026-05-04 22:54 | 41.88487 | -74.18564 | 20069 ft | 430 kts | 202° |
| 2026-05-04 22:54 | 41.85654 | -74.19801 | 19452 ft | 426 kts | 202° |
| 2026-05-04 22:54 | 41.82857 | -74.21020 | 18849 ft | 418 kts | 202° |
| 2026-05-04 22:55 | 41.80097 | -74.22225 | 18173 ft | 419 kts | 202° |
| 2026-05-04 22:55 | 41.77328 | -74.23435 | 17296 ft | 415 kts | 202° |
| 2026-05-04 22:55 | 41.74648 | -74.24599 | 16284 ft | 403 kts | 202° |
| 2026-05-04 22:55 | 41.72028 | -74.25734 | 15288 ft | 391 kts | 202° |
| 2026-05-04 22:56 | 41.69479 | -74.26840 | 14332 ft | 380 kts | 202° |
| 2026-05-04 22:56 | 41.67001 | -74.27914 | 13343 ft | 370 kts | 202° |
| 2026-05-04 22:56 | 41.64585 | -74.28965 | 12296 ft | 361 kts | 202° |
| 2026-05-04 22:56 | 41.62231 | -74.29989 | 11283 ft | 353 kts | 202° |
| 2026-05-04 22:57 | 41.59920 | -74.30996 | 10303 ft | 346 kts | 202° |
| 2026-05-04 22:57 | 41.57650 | -74.31982 | 9312 ft | 339 kts | 202° |
| 2026-05-04 22:57 | 41.55444 | -74.32937 | 8532 ft | 326 kts | 201° |
| 2026-05-04 22:57 | 41.53352 | -74.33839 | 8008 ft | 307 kts | 202° |
| 2026-05-04 22:58 | 41.51365 | -74.34692 | 7489 ft | 290 kts | 202° |
| 2026-05-04 22:58 | 41.49504 | -74.35492 | 7157 ft | 273 kts | 202° |
| 2026-05-04 22:58 | 41.47734 | -74.36255 | 7049 ft | 264 kts | 202° |
| 2026-05-04 22:58 | 41.45990 | -74.37013 | 7029 ft | 265 kts | 202° |
| 2026-05-04 22:59 | 41.44262 | -74.37765 | 7027 ft | 264 kts | 202° |
| 2026-05-04 22:59 | 41.42525 | -74.38523 | 6805 ft | 262 kts | 202° |
| 2026-05-04 22:59 | 41.40814 | -74.39288 | 6418 ft | 257 kts | 202° |
| 2026-05-04 22:59 | 41.39127 | -74.40050 | 6083 ft | 257 kts | 202° |
| 2026-05-04 23:00 | 41.37430 | -74.40826 | 5989 ft | 256 kts | 202° |
| 2026-05-04 23:00 | 41.35747 | -74.41605 | 5980 ft | 259 kts | 202° |
| 2026-05-04 23:00 | 41.34049 | -74.42392 | 5968 ft | 257 kts | 202° |
| 2026-05-04 23:00 | 41.32346 | -74.43171 | 5977 ft | 260 kts | 202° |
| 2026-05-04 23:01 | 41.30638 | -74.43945 | 5977 ft | 260 kts | 202° |
| 2026-05-04 23:01 | 41.28927 | -74.44728 | 5981 ft | 260 kts | 203° |
| 2026-05-04 23:01 | 41.27231 | -74.45487 | 5975 ft | 261 kts | 202° |
| 2026-05-04 23:01 | 41.25506 | -74.46209 | 5974 ft | 258 kts | 196° |
| 2026-05-04 23:02 | 41.23728 | -74.46192 | 5979 ft | 261 kts | 171° |
| 2026-05-04 23:02 | 41.22094 | -74.45094 | 5981 ft | 271 kts | 144° |
| 2026-05-04 23:02 | 41.20763 | -74.43284 | 5979 ft | 275 kts | 137° |
| 2026-05-04 23:02 | 41.19444 | -74.41434 | 5980 ft | 276 kts | 137° |
| 2026-05-04 23:03 | 41.18126 | -74.39598 | 5982 ft | 275 kts | 137° |
| 2026-05-04 23:03 | 41.16805 | -74.37751 | 5980 ft | 275 kts | 137° |
| 2026-05-04 23:03 | 41.15498 | -74.35904 | 5984 ft | 274 kts | 137° |
| 2026-05-04 23:03 | 41.14191 | -74.34056 | 5980 ft | 275 kts | 137° |
| 2026-05-04 23:04 | 41.12875 | -74.32206 | 5983 ft | 276 kts | 137° |
| 2026-05-04 23:04 | 41.11577 | -74.30364 | 5985 ft | 276 kts | 137° |
| 2026-05-04 23:04 | 41.10269 | -74.28531 | 5991 ft | 273 kts | 137° |
| 2026-05-04 23:04 | 41.08964 | -74.26711 | 5989 ft | 272 kts | 137° |
| 2026-05-04 23:05 | 41.07680 | -74.24916 | 5907 ft | 268 kts | 137° |
| 2026-05-04 23:05 | 41.06402 | -74.23118 | 5558 ft | 265 kts | 137° |
| 2026-05-04 23:05 | 41.05144 | -74.21353 | 5060 ft | 263 kts | 137° |
| 2026-05-04 23:05 | 41.03886 | -74.19604 | 4555 ft | 260 kts | 139° |
| 2026-05-04 23:06 | 41.02528 | -74.18069 | 4127 ft | 250 kts | 147° |
| 2026-05-04 23:06 | 41.01188 | -74.16713 | 3990 ft | 234 kts | 147° |
| 2026-05-04 23:06 | 40.99888 | -74.15397 | 3983 ft | 237 kts | 147° |
| 2026-05-04 23:06 | 40.98602 | -74.14103 | 3985 ft | 226 kts | 147° |
| 2026-05-04 23:07 | 40.97368 | -74.12849 | 4001 ft | 225 kts | 147° |
| 2026-05-04 23:07 | 40.96122 | -74.11575 | 3987 ft | 226 kts | 147° |
| 2026-05-04 23:07 | 40.94888 | -74.10301 | 3983 ft | 226 kts | 147° |
| 2026-05-04 23:07 | 40.93585 | -74.09235 | 4015 ft | 220 kts | 163° |
| 2026-05-04 23:08 | 40.92127 | -74.08669 | 3971 ft | 216 kts | 172° |
| 2026-05-04 23:08 | 40.90671 | -74.08265 | 3797 ft | 212 kts | 173° |
| 2026-05-04 23:08 | 40.89228 | -74.07848 | 3444 ft | 215 kts | 171° |
| 2026-05-04 23:08 | 40.87781 | -74.07361 | 3177 ft | 212 kts | 169° |
| 2026-05-04 23:09 | 40.86378 | -74.06840 | 3000 ft | 210 kts | 168° |
| 2026-05-04 23:09 | 40.84924 | -74.06505 | 2991 ft | 210 kts | 187° |
| 2026-05-04 23:09 | 40.83576 | -74.07053 | 3001 ft | 196 kts | 212° |
| 2026-05-04 23:09 | 40.82447 | -74.07947 | 2889 ft | 186 kts | 212° |
| 2026-05-04 23:10 | 40.81281 | -74.08618 | 2692 ft | 183 kts | 198° |
| 2026-05-04 23:10 | 40.80013 | -74.08799 | 2473 ft | 183 kts | 181° |
| 2026-05-04 23:10 | 40.78763 | -74.08648 | 2280 ft | 179 kts | 179° |
| 2026-05-04 23:10 | 40.77533 | -74.08503 | 2110 ft | 175 kts | 179° |
| 2026-05-04 23:11 | 40.76336 | -74.08393 | 1913 ft | 169 kts | 180° |
| 2026-05-04 23:11 | 40.75202 | -74.08294 | 1711 ft | 163 kts | 181° |
| 2026-05-04 23:11 | 40.74089 | -74.08206 | 1542 ft | 155 kts | 182° |
| 2026-05-04 23:11 | 40.73048 | -74.08277 | 1383 ft | 139 kts | 195° |
| 2026-05-04 23:12 | 40.72201 | -74.08755 | 1195 ft | 135 kts | 212° |
| 2026-05-04 23:12 | 40.71398 | -74.09377 | 1034 ft | 131 kts | 212° |
| 2026-05-04 23:12 | 40.70587 | -74.09949 | 911 ft | 137 kts | 211° |
| 2026-05-04 23:12 | 40.69931 | -74.10768 | 717 ft | 126 kts | 239° |
| 2026-05-04 23:13 | 40.69841 | -74.11908 | 581 ft | 131 kts | 274° |
| 2026-05-04 23:13 | 40.69975 | -74.13087 | 405 ft | 125 kts | 271° |
| 2026-05-04 23:13 | 40.70029 | -74.14203 | 284 ft | 131 kts | 270° |
| 2026-05-04 23:13 | 40.70112 | -74.15433 | 136 ft | 132 kts | 268° |
| 2026-05-04 23:14 | 40.70176 | -74.16597 | 27 ft | 119 kts | 272° |
| 2026-05-04 23:14 | 40.70234 | -74.17496 | 28 ft | 49 kts | 278° |
| 2026-05-04 23:14 | 40.70189 | -74.17806 | 28 ft | 6 kts | 240° |
| 2026-05-04 23:14 | 40.70155 | -74.17883 | 29 ft | 15 kts | 238° |
| 2026-05-04 23:15 | 40.70094 | -74.17889 | 28 ft | 6 kts | 128° |
| 2026-05-04 23:15 | 40.70076 | -74.17758 | 29 ft | 12 kts | 96° |
| 2026-05-04 23:15 | 40.70025 | -74.17679 | 31 ft | 11 kts | 150° |
| 2026-05-04 23:15 | 40.70007 | -74.17676 | 30 ft | 0 kts | 175° |
| 2026-05-04 23:16 | 40.70001 | -74.17675 | 30 ft | 0 kts | 174° |